sensor_id;sensor_type;location;lat;lon;timestamp;pressure;altitude;pressure_sealevel;temperature;humidity
4449;BME280;2237;51.870;6.160;2023-09-12T00:00:05;101164.97;;;24.39;100.00
4449;BME280;2237;51.870;6.160;2023-09-12T00:02:31;101158.69;;;24.16;100.00
4449;BME280;2237;51.870;6.160;2023-09-12T00:04:58;101151.63;;;23.91;100.00
4449;BME280;2237;51.870;6.160;2023-09-12T00:07:24;101155.69;;;23.84;100.00
4449;BME280;2237;51.870;6.160;2023-09-12T00:09:51;101163.09;;;23.92;100.00
4449;BME280;2237;51.870;6.160;2023-09-12T00:12:22;101150.13;;;24.00;100.00
4449;BME280;2237;51.870;6.160;2023-09-12T00:14:49;101138.88;;;23.84;100.00
4449;BME280;2237;51.870;6.160;2023-09-12T00:17:15;101147.56;;;23.86;100.00
4449;BME280;2237;51.870;6.160;2023-09-12T00:19:43;101144.09;;;23.85;100.00
4449;BME280;2237;51.870;6.160;2023-09-12T00:22:09;101130.03;;;23.83;100.00
4449;BME280;2237;51.870;6.160;2023-09-12T00:24:35;101133.13;;;23.77;100.00
4449;BME280;2237;51.870;6.160;2023-09-12T00:27:02;101159.56;;;23.55;100.00
4449;BME280;2237;51.870;6.160;2023-09-12T00:29:31;101202.84;;;23.57;100.00
4449;BME280;2237;51.870;6.160;2023-09-12T00:31:57;101223.91;;;23.60;100.00
4449;BME280;2237;51.870;6.160;2023-09-12T00:34:24;101227.97;;;23.53;100.00
4449;BME280;2237;51.870;6.160;2023-09-12T00:36:50;101243.22;;;23.37;100.00
4449;BME280;2237;51.870;6.160;2023-09-12T00:39:16;101257.69;;;23.20;100.00
4449;BME280;2237;51.870;6.160;2023-09-12T00:41:43;101243.50;;;22.94;100.00
4449;BME280;2237;51.870;6.160;2023-09-12T00:44:10;101201.31;;;23.02;100.00
4449;BME280;2237;51.870;6.160;2023-09-12T00:46:36;101186.88;;;23.06;100.00
4449;BME280;2237;51.870;6.160;2023-09-12T00:49:05;101182.00;;;23.26;100.00
4449;BME280;2237;51.870;6.160;2023-09-12T00:51:32;101151.00;;;23.39;100.00
4449;BME280;2237;51.870;6.160;2023-09-12T00:54:00;101134.63;;;23.45;100.00
4449;BME280;2237;51.870;6.160;2023-09-12T00:56:27;101122.88;;;23.35;100.00
4449;BME280;2237;51.870;6.160;2023-09-12T00:58:54;101136.50;;;23.30;100.00
4449;BME280;2237;51.870;6.160;2023-09-12T01:01:20;101130.56;;;23.27;100.00
4449;BME280;2237;51.870;6.160;2023-09-12T01:03:48;101124.59;;;23.23;100.00
4449;BME280;2237;51.870;6.160;2023-09-12T01:06:20;101122.47;;;23.28;100.00
4449;BME280;2237;51.870;6.160;2023-09-12T01:08:48;101120.22;;;23.35;100.00
4449;BME280;2237;51.870;6.160;2023-09-12T01:11:14;101121.94;;;23.36;100.00
4449;BME280;2237;51.870;6.160;2023-09-12T01:13:41;101109.81;;;23.32;100.00
4449;BME280;2237;51.870;6.160;2023-09-12T01:16:07;101123.97;;;23.20;100.00
4449;BME280;2237;51.870;6.160;2023-09-12T01:18:34;101127.47;;;23.07;100.00
4449;BME280;2237;51.870;6.160;2023-09-12T01:23:54;101136.63;;;23.03;100.00
4449;BME280;2237;51.870;6.160;2023-09-12T01:26:37;101140.97;;;23.04;100.00
4449;BME280;2237;51.870;6.160;2023-09-12T01:29:07;101144.47;;;22.92;100.00
4449;BME280;2237;51.870;6.160;2023-09-12T01:31:37;101133.41;;;22.86;100.00
4449;BME280;2237;51.870;6.160;2023-09-12T01:34:10;101145.44;;;22.91;100.00
4449;BME280;2237;51.870;6.160;2023-09-12T01:36:38;101133.94;;;22.78;100.00
4449;BME280;2237;51.870;6.160;2023-09-12T01:39:04;101135.81;;;22.64;100.00
4449;BME280;2237;51.870;6.160;2023-09-12T01:41:34;101130.50;;;22.64;100.00
4449;BME280;2237;51.870;6.160;2023-09-12T01:44:02;101119.66;;;22.67;100.00
4449;BME280;2237;51.870;6.160;2023-09-12T01:46:29;101122.69;;;22.75;100.00
4449;BME280;2237;51.870;6.160;2023-09-12T01:48:58;101119.50;;;22.82;100.00
4449;BME280;2237;51.870;6.160;2023-09-12T01:51:26;101114.72;;;22.87;100.00
4449;BME280;2237;51.870;6.160;2023-09-12T01:53:54;101118.00;;;22.78;100.00
4449;BME280;2237;51.870;6.160;2023-09-12T01:56:21;101120.66;;;22.78;100.00
4449;BME280;2237;51.870;6.160;2023-09-12T01:58:48;101123.41;;;22.77;100.00
4449;BME280;2237;51.870;6.160;2023-09-12T02:01:14;101125.84;;;22.67;100.00
4449;BME280;2237;51.870;6.160;2023-09-12T02:03:41;101126.63;;;22.69;100.00
4449;BME280;2237;51.870;6.160;2023-09-12T02:06:07;101123.56;;;22.48;100.00
4449;BME280;2237;51.870;6.160;2023-09-12T02:08:34;101125.13;;;22.38;100.00
4449;BME280;2237;51.870;6.160;2023-09-12T02:11:00;101119.34;;;22.32;100.00
4449;BME280;2237;51.870;6.160;2023-09-12T02:13:27;101112.16;;;22.34;100.00
4449;BME280;2237;51.870;6.160;2023-09-12T02:16:00;101120.78;;;22.37;100.00
4449;BME280;2237;51.870;6.160;2023-09-12T02:18:27;101112.81;;;22.37;100.00
4449;BME280;2237;51.870;6.160;2023-09-12T02:20:53;101128.22;;;22.45;100.00
4449;BME280;2237;51.870;6.160;2023-09-12T02:23:19;101112.38;;;22.31;100.00
4449;BME280;2237;51.870;6.160;2023-09-12T02:25:46;101119.78;;;22.26;100.00
4449;BME280;2237;51.870;6.160;2023-09-12T02:28:12;101114.28;;;22.29;100.00
4449;BME280;2237;51.870;6.160;2023-09-12T02:30:39;101114.81;;;22.34;100.00
4449;BME280;2237;51.870;6.160;2023-09-12T02:33:08;101122.56;;;22.37;100.00
4449;BME280;2237;51.870;6.160;2023-09-12T02:35:35;101129.56;;;22.38;100.00
4449;BME280;2237;51.870;6.160;2023-09-12T02:38:01;101137.63;;;22.36;100.00
4449;BME280;2237;51.870;6.160;2023-09-12T02:40:28;101140.81;;;22.29;100.00
4449;BME280;2237;51.870;6.160;2023-09-12T02:42:54;101156.31;;;22.35;100.00
4449;BME280;2237;51.870;6.160;2023-09-12T02:45:20;101163.88;;;22.41;100.00
4449;BME280;2237;51.870;6.160;2023-09-12T02:47:47;101157.88;;;22.51;100.00
4449;BME280;2237;51.870;6.160;2023-09-12T02:50:13;101156.16;;;22.50;100.00
4449;BME280;2237;51.870;6.160;2023-09-12T02:52:40;101146.38;;;22.51;100.00
4449;BME280;2237;51.870;6.160;2023-09-12T02:55:06;101145.66;;;22.49;100.00
4449;BME280;2237;51.870;6.160;2023-09-12T02:57:33;101147.66;;;22.45;100.00
4449;BME280;2237;51.870;6.160;2023-09-12T02:59:59;101143.41;;;22.43;100.00
4449;BME280;2237;51.870;6.160;2023-09-12T03:02:25;101151.38;;;22.43;100.00
4449;BME280;2237;51.870;6.160;2023-09-12T03:04:54;101145.50;;;22.38;100.00
4449;BME280;2237;51.870;6.160;2023-09-12T03:07:21;101148.91;;;22.40;100.00
4449;BME280;2237;51.870;6.160;2023-09-12T03:09:48;101154.97;;;22.42;100.00
4449;BME280;2237;51.870;6.160;2023-09-12T03:12:16;101140.84;;;22.41;100.00
4449;BME280;2237;51.870;6.160;2023-09-12T03:14:42;101143.59;;;22.40;100.00
4449;BME280;2237;51.870;6.160;2023-09-12T03:17:09;101135.00;;;22.36;100.00
4449;BME280;2237;51.870;6.160;2023-09-12T03:19:35;101143.81;;;22.37;100.00
4449;BME280;2237;51.870;6.160;2023-09-12T03:22:02;101128.28;;;22.31;100.00
4449;BME280;2237;51.870;6.160;2023-09-12T03:24:28;101135.13;;;22.21;100.00
4449;BME280;2237;51.870;6.160;2023-09-12T03:26:55;101132.06;;;22.14;100.00
4449;BME280;2237;51.870;6.160;2023-09-12T03:29:21;101131.59;;;22.08;100.00
4449;BME280;2237;51.870;6.160;2023-09-12T03:31:49;101135.59;;;22.01;100.00
4449;BME280;2237;51.870;6.160;2023-09-12T03:34:15;101127.81;;;21.98;100.00
4449;BME280;2237;51.870;6.160;2023-09-12T03:36:41;101131.66;;;21.93;100.00
4449;BME280;2237;51.870;6.160;2023-09-12T03:39:08;101122.09;;;21.91;100.00
4449;BME280;2237;51.870;6.160;2023-09-12T03:41:35;101131.22;;;21.85;100.00
4449;BME280;2237;51.870;6.160;2023-09-12T03:44:01;101119.78;;;21.85;100.00
4449;BME280;2237;51.870;6.160;2023-09-12T03:46:28;101115.56;;;21.82;100.00
4449;BME280;2237;51.870;6.160;2023-09-12T03:48:55;101126.63;;;21.75;100.00
4449;BME280;2237;51.870;6.160;2023-09-12T03:51:21;101118.41;;;21.65;100.00
4449;BME280;2237;51.870;6.160;2023-09-12T03:53:48;101122.69;;;21.68;100.00
4449;BME280;2237;51.870;6.160;2023-09-12T03:56:16;101110.84;;;21.73;100.00
4449;BME280;2237;51.870;6.160;2023-09-12T03:58:46;101095.56;;;21.77;100.00
4449;BME280;2237;51.870;6.160;2023-09-12T04:01:13;101083.94;;;21.79;100.00
4449;BME280;2237;51.870;6.160;2023-09-12T04:03:39;101085.53;;;21.82;100.00
4449;BME280;2237;51.870;6.160;2023-09-12T04:06:06;101074.66;;;21.72;100.00
4449;BME280;2237;51.870;6.160;2023-09-12T04:08:32;101076.75;;;21.67;100.00
4449;BME280;2237;51.870;6.160;2023-09-12T04:10:59;101090.22;;;21.64;100.00
4449;BME280;2237;51.870;6.160;2023-09-12T04:13:25;101093.78;;;21.63;100.00
4449;BME280;2237;51.870;6.160;2023-09-12T04:15:51;101104.59;;;21.60;100.00
4449;BME280;2237;51.870;6.160;2023-09-12T04:18:18;101094.38;;;21.54;100.00
4449;BME280;2237;51.870;6.160;2023-09-12T04:20:44;101096.09;;;21.55;100.00
4449;BME280;2237;51.870;6.160;2023-09-12T04:23:11;101087.94;;;21.58;100.00
4449;BME280;2237;51.870;6.160;2023-09-12T04:25:37;101085.28;;;21.58;100.00
4449;BME280;2237;51.870;6.160;2023-09-12T04:28:04;101098.97;;;21.38;100.00
4449;BME280;2237;51.870;6.160;2023-09-12T04:30:30;101095.16;;;21.28;100.00
4449;BME280;2237;51.870;6.160;2023-09-12T04:32:57;101102.56;;;21.23;100.00
4449;BME280;2237;51.870;6.160;2023-09-12T04:35:23;101103.69;;;21.19;100.00
4449;BME280;2237;51.870;6.160;2023-09-12T04:37:51;101097.94;;;21.12;100.00
4449;BME280;2237;51.870;6.160;2023-09-12T04:40:17;101107.06;;;21.07;100.00
4449;BME280;2237;51.870;6.160;2023-09-12T04:42:44;101103.22;;;21.12;100.00
4449;BME280;2237;51.870;6.160;2023-09-12T04:45:10;101097.81;;;21.14;100.00
4449;BME280;2237;51.870;6.160;2023-09-12T04:47:37;101096.31;;;21.24;100.00
4449;BME280;2237;51.870;6.160;2023-09-12T04:50:04;101102.19;;;21.29;100.00
4449;BME280;2237;51.870;6.160;2023-09-12T04:52:30;101107.84;;;21.37;100.00
4449;BME280;2237;51.870;6.160;2023-09-12T04:55:00;101107.16;;;21.33;100.00
4449;BME280;2237;51.870;6.160;2023-09-12T04:57:26;101110.97;;;21.29;100.00
4449;BME280;2237;51.870;6.160;2023-09-12T05:00:00;101120.53;;;21.18;100.00
4449;BME280;2237;51.870;6.160;2023-09-12T05:02:32;101115.84;;;21.07;100.00
4449;BME280;2237;51.870;6.160;2023-09-12T05:04:58;101122.28;;;21.03;100.00
4449;BME280;2237;51.870;6.160;2023-09-12T05:07:24;101127.78;;;21.00;100.00
4449;BME280;2237;51.870;6.160;2023-09-12T05:09:51;101128.25;;;21.07;100.00
4449;BME280;2237;51.870;6.160;2023-09-12T05:12:17;101134.81;;;21.15;100.00
4449;BME280;2237;51.870;6.160;2023-09-12T05:14:44;101135.47;;;21.19;100.00
4449;BME280;2237;51.870;6.160;2023-09-12T05:17:10;101135.19;;;21.09;100.00
4449;BME280;2237;51.870;6.160;2023-09-12T05:19:37;101138.22;;;21.17;100.00
4449;BME280;2237;51.870;6.160;2023-09-12T05:22:03;101136.25;;;21.21;100.00
4449;BME280;2237;51.870;6.160;2023-09-12T05:24:30;101144.19;;;21.35;100.00
4449;BME280;2237;51.870;6.160;2023-09-12T05:26:56;101142.41;;;21.35;100.00
4449;BME280;2237;51.870;6.160;2023-09-12T05:29:22;101143.88;;;21.39;100.00
4449;BME280;2237;51.870;6.160;2023-09-12T05:31:49;101146.81;;;21.49;100.00
4449;BME280;2237;51.870;6.160;2023-09-12T05:34:15;101151.00;;;21.53;100.00
4449;BME280;2237;51.870;6.160;2023-09-12T05:36:42;101152.69;;;21.54;100.00
4449;BME280;2237;51.870;6.160;2023-09-12T05:39:08;101157.31;;;21.51;100.00
4449;BME280;2237;51.870;6.160;2023-09-12T05:41:35;101156.56;;;21.34;100.00
4449;BME280;2237;51.870;6.160;2023-09-12T05:44:02;101150.41;;;21.34;100.00
4449;BME280;2237;51.870;6.160;2023-09-12T05:46:28;101158.56;;;21.45;100.00
4449;BME280;2237;51.870;6.160;2023-09-12T05:48:54;101154.41;;;21.55;100.00
4449;BME280;2237;51.870;6.160;2023-09-12T05:51:21;101149.84;;;21.57;100.00
4449;BME280;2237;51.870;6.160;2023-09-12T05:53:47;101153.81;;;21.64;100.00
4449;BME280;2237;51.870;6.160;2023-09-12T05:56:14;101151.72;;;21.69;100.00
4449;BME280;2237;51.870;6.160;2023-09-12T05:58:40;101158.75;;;21.70;100.00
4449;BME280;2237;51.870;6.160;2023-09-12T06:01:09;101163.06;;;21.71;100.00
4449;BME280;2237;51.870;6.160;2023-09-12T06:03:35;101173.22;;;21.79;100.00
4449;BME280;2237;51.870;6.160;2023-09-12T06:06:03;101171.22;;;21.82;100.00
4449;BME280;2237;51.870;6.160;2023-09-12T06:08:29;101167.06;;;21.92;100.00
4449;BME280;2237;51.870;6.160;2023-09-12T06:10:56;101176.97;;;22.03;100.00
4449;BME280;2237;51.870;6.160;2023-09-12T06:13:22;101161.53;;;22.10;100.00
4449;BME280;2237;51.870;6.160;2023-09-12T06:15:49;101172.88;;;22.12;100.00
4449;BME280;2237;51.870;6.160;2023-09-12T06:18:15;101170.69;;;22.18;100.00
4449;BME280;2237;51.870;6.160;2023-09-12T06:20:42;101184.47;;;22.11;100.00
4449;BME280;2237;51.870;6.160;2023-09-12T06:23:08;101174.44;;;22.02;100.00
4449;BME280;2237;51.870;6.160;2023-09-12T06:25:36;101180.41;;;22.05;100.00
4449;BME280;2237;51.870;6.160;2023-09-12T06:28:03;101188.03;;;22.10;100.00
4449;BME280;2237;51.870;6.160;2023-09-12T06:30:29;101178.84;;;22.15;100.00
4449;BME280;2237;51.870;6.160;2023-09-12T06:32:55;101193.63;;;22.19;100.00
4449;BME280;2237;51.870;6.160;2023-09-12T06:35:22;101201.28;;;22.24;100.00
4449;BME280;2237;51.870;6.160;2023-09-12T06:37:48;101200.41;;;22.23;100.00
4449;BME280;2237;51.870;6.160;2023-09-12T06:40:15;101186.41;;;22.21;100.00
4449;BME280;2237;51.870;6.160;2023-09-12T06:42:41;101181.97;;;22.22;100.00
4449;BME280;2237;51.870;6.160;2023-09-12T06:45:09;101188.19;;;22.21;100.00
4449;BME280;2237;51.870;6.160;2023-09-12T06:47:35;101178.56;;;22.20;100.00
4449;BME280;2237;51.870;6.160;2023-09-12T06:50:02;101188.13;;;22.22;100.00
4449;BME280;2237;51.870;6.160;2023-09-12T06:52:30;101189.59;;;22.26;100.00
4449;BME280;2237;51.870;6.160;2023-09-12T06:54:56;101190.56;;;22.25;100.00
4449;BME280;2237;51.870;6.160;2023-09-12T06:57:22;101198.56;;;22.11;100.00
4449;BME280;2237;51.870;6.160;2023-09-12T06:59:49;101206.06;;;22.05;100.00
4449;BME280;2237;51.870;6.160;2023-09-12T07:02:15;101196.69;;;21.99;100.00
4449;BME280;2237;51.870;6.160;2023-09-12T07:04:44;101201.16;;;21.99;100.00
4449;BME280;2237;51.870;6.160;2023-09-12T07:07:11;101205.31;;;22.03;100.00
4449;BME280;2237;51.870;6.160;2023-09-12T07:09:37;101200.75;;;22.05;100.00
4449;BME280;2237;51.870;6.160;2023-09-12T07:12:04;101198.28;;;22.16;100.00
4449;BME280;2237;51.870;6.160;2023-09-12T07:14:32;101201.13;;;22.13;100.00
4449;BME280;2237;51.870;6.160;2023-09-12T07:16:58;101200.34;;;22.25;100.00
4449;BME280;2237;51.870;6.160;2023-09-12T07:19:24;101202.19;;;22.37;100.00
4449;BME280;2237;51.870;6.160;2023-09-12T07:21:51;101198.75;;;22.49;100.00
4449;BME280;2237;51.870;6.160;2023-09-12T07:24:17;101187.69;;;22.55;100.00
4449;BME280;2237;51.870;6.160;2023-09-12T07:26:44;101190.66;;;22.50;100.00
4449;BME280;2237;51.870;6.160;2023-09-12T07:29:12;101186.28;;;22.49;100.00
4449;BME280;2237;51.870;6.160;2023-09-12T07:31:39;101183.34;;;22.54;100.00
4449;BME280;2237;51.870;6.160;2023-09-12T07:34:06;101185.75;;;22.71;100.00
4449;BME280;2237;51.870;6.160;2023-09-12T07:36:34;101171.75;;;22.82;100.00
4449;BME280;2237;51.870;6.160;2023-09-12T07:39:01;101182.41;;;22.94;100.00
4449;BME280;2237;51.870;6.160;2023-09-12T07:41:27;101175.19;;;23.09;100.00
4449;BME280;2237;51.870;6.160;2023-09-12T07:43:54;101179.25;;;23.15;100.00
4449;BME280;2237;51.870;6.160;2023-09-12T07:46:20;101160.66;;;23.27;100.00
4449;BME280;2237;51.870;6.160;2023-09-12T07:48:47;101168.09;;;23.47;100.00
4449;BME280;2237;51.870;6.160;2023-09-12T07:51:16;101163.94;;;23.56;100.00
4449;BME280;2237;51.870;6.160;2023-09-12T07:53:45;101158.00;;;23.52;100.00
4449;BME280;2237;51.870;6.160;2023-09-12T07:56:12;101171.72;;;23.59;100.00
4449;BME280;2237;51.870;6.160;2023-09-12T07:58:39;101163.31;;;23.52;100.00
4449;BME280;2237;51.870;6.160;2023-09-12T08:01:07;101166.28;;;23.35;100.00
4449;BME280;2237;51.870;6.160;2023-09-12T08:03:34;101170.72;;;23.35;100.00
4449;BME280;2237;51.870;6.160;2023-09-12T08:06:02;101172.00;;;23.54;100.00
4449;BME280;2237;51.870;6.160;2023-09-12T08:08:29;101168.19;;;23.46;100.00
4449;BME280;2237;51.870;6.160;2023-09-12T08:10:56;101166.38;;;23.59;100.00
4449;BME280;2237;51.870;6.160;2023-09-12T08:13:27;101159.88;;;23.63;100.00
4449;BME280;2237;51.870;6.160;2023-09-12T08:15:54;101166.63;;;23.92;100.00
4449;BME280;2237;51.870;6.160;2023-09-12T08:18:21;101171.19;;;24.03;100.00
4449;BME280;2237;51.870;6.160;2023-09-12T08:20:47;101159.31;;;24.07;100.00
4449;BME280;2237;51.870;6.160;2023-09-12T08:23:14;101156.09;;;24.27;100.00
4449;BME280;2237;51.870;6.160;2023-09-12T08:25:40;101154.09;;;24.42;100.00
4449;BME280;2237;51.870;6.160;2023-09-12T08:28:07;101151.03;;;24.35;100.00
4449;BME280;2237;51.870;6.160;2023-09-12T08:30:33;101158.25;;;24.46;100.00
4449;BME280;2237;51.870;6.160;2023-09-12T08:33:00;101154.25;;;24.51;100.00
4449;BME280;2237;51.870;6.160;2023-09-12T08:35:29;101147.59;;;24.46;100.00
4449;BME280;2237;51.870;6.160;2023-09-12T08:37:56;101151.78;;;24.13;100.00
4449;BME280;2237;51.870;6.160;2023-09-12T08:40:22;101161.56;;;24.00;100.00
4449;BME280;2237;51.870;6.160;2023-09-12T08:42:51;101179.34;;;23.63;100.00
4449;BME280;2237;51.870;6.160;2023-09-12T08:45:19;101191.38;;;23.44;100.00
4449;BME280;2237;51.870;6.160;2023-09-12T08:47:50;101189.81;;;23.41;100.00
4449;BME280;2237;51.870;6.160;2023-09-12T08:50:18;101175.00;;;23.50;100.00
4449;BME280;2237;51.870;6.160;2023-09-12T08:52:47;101174.00;;;23.76;100.00
4449;BME280;2237;51.870;6.160;2023-09-12T08:55:29;101177.09;;;24.06;100.00
4449;BME280;2237;51.870;6.160;2023-09-12T08:57:58;101188.59;;;24.20;100.00
4449;BME280;2237;51.870;6.160;2023-09-12T09:00:26;101198.84;;;24.13;100.00
4449;BME280;2237;51.870;6.160;2023-09-12T09:02:54;101207.81;;;23.74;100.00
4449;BME280;2237;51.870;6.160;2023-09-12T09:05:21;101196.53;;;23.83;100.00
4449;BME280;2237;51.870;6.160;2023-09-12T09:07:51;101206.38;;;24.06;100.00
4449;BME280;2237;51.870;6.160;2023-09-12T09:10:19;101201.28;;;24.03;100.00
4449;BME280;2237;51.870;6.160;2023-09-12T09:13:03;101198.53;;;23.92;100.00
4449;BME280;2237;51.870;6.160;2023-09-12T09:15:30;101202.56;;;24.10;100.00
4449;BME280;2237;51.870;6.160;2023-09-12T09:17:57;101212.34;;;24.23;100.00
4449;BME280;2237;51.870;6.160;2023-09-12T09:20:32;101207.00;;;24.23;100.00
4449;BME280;2237;51.870;6.160;2023-09-12T09:23:05;101204.91;;;24.02;100.00
4449;BME280;2237;51.870;6.160;2023-09-12T09:25:33;101210.28;;;23.77;100.00
4449;BME280;2237;51.870;6.160;2023-09-12T09:28:04;101211.69;;;23.70;100.00
4449;BME280;2237;51.870;6.160;2023-09-12T09:30:44;101227.84;;;23.67;100.00
4449;BME280;2237;51.870;6.160;2023-09-12T09:33:12;101222.63;;;23.78;100.00
4449;BME280;2237;51.870;6.160;2023-09-12T09:35:45;101237.00;;;23.88;100.00
4449;BME280;2237;51.870;6.160;2023-09-12T09:38:12;101239.22;;;23.94;100.00
4449;BME280;2237;51.870;6.160;2023-09-12T09:40:43;101228.31;;;23.97;100.00
4449;BME280;2237;51.870;6.160;2023-09-12T09:43:10;101227.06;;;24.03;100.00
4449;BME280;2237;51.870;6.160;2023-09-12T09:45:44;101217.53;;;23.62;100.00
4449;BME280;2237;51.870;6.160;2023-09-12T09:48:22;101231.53;;;23.77;100.00
4449;BME280;2237;51.870;6.160;2023-09-12T09:50:49;101236.00;;;24.02;100.00
4449;BME280;2237;51.870;6.160;2023-09-12T09:53:15;101232.66;;;24.24;100.00
4449;BME280;2237;51.870;6.160;2023-09-12T09:55:42;101228.59;;;24.54;100.00
4449;BME280;2237;51.870;6.160;2023-09-12T09:58:14;101236.66;;;24.89;100.00
4449;BME280;2237;51.870;6.160;2023-09-12T10:00:43;101226.72;;;24.91;100.00
4449;BME280;2237;51.870;6.160;2023-09-12T10:03:10;101231.88;;;25.16;100.00
4449;BME280;2237;51.870;6.160;2023-09-12T10:05:37;101216.41;;;25.21;100.00
4449;BME280;2237;51.870;6.160;2023-09-12T10:08:06;101212.03;;;25.32;100.00
4449;BME280;2237;51.870;6.160;2023-09-12T10:10:35;101212.72;;;25.11;100.00
4449;BME280;2237;51.870;6.160;2023-09-12T10:13:03;101194.78;;;25.02;100.00
4449;BME280;2237;51.870;6.160;2023-09-12T10:15:30;101200.22;;;25.01;100.00
4449;BME280;2237;51.870;6.160;2023-09-12T10:17:59;101200.53;;;24.85;100.00
4449;BME280;2237;51.870;6.160;2023-09-12T10:20:35;101191.81;;;24.83;100.00
4449;BME280;2237;51.870;6.160;2023-09-12T10:23:06;101205.66;;;24.99;100.00
4449;BME280;2237;51.870;6.160;2023-09-12T10:25:35;101199.78;;;25.29;100.00
4449;BME280;2237;51.870;6.160;2023-09-12T10:28:06;101194.84;;;25.36;100.00
4449;BME280;2237;51.870;6.160;2023-09-12T10:30:33;101204.59;;;25.48;100.00
4449;BME280;2237;51.870;6.160;2023-09-12T10:33:02;101207.25;;;25.59;100.00
4449;BME280;2237;51.870;6.160;2023-09-12T10:35:30;101209.53;;;25.63;100.00
4449;BME280;2237;51.870;6.160;2023-09-12T10:38:00;101199.00;;;25.51;100.00
4449;BME280;2237;51.870;6.160;2023-09-12T10:40:32;101204.59;;;25.59;100.00
4449;BME280;2237;51.870;6.160;2023-09-12T10:43:08;101196.97;;;25.65;100.00
4449;BME280;2237;51.870;6.160;2023-09-12T10:45:35;101198.63;;;25.77;100.00
4449;BME280;2237;51.870;6.160;2023-09-12T10:48:03;101194.13;;;25.78;100.00
4449;BME280;2237;51.870;6.160;2023-09-12T10:50:30;101194.97;;;25.90;100.00
4449;BME280;2237;51.870;6.160;2023-09-12T10:53:11;101198.84;;;26.19;100.00
4449;BME280;2237;51.870;6.160;2023-09-12T10:55:38;101189.63;;;26.12;100.00
4449;BME280;2237;51.870;6.160;2023-09-12T10:58:07;101189.72;;;26.21;100.00
4449;BME280;2237;51.870;6.160;2023-09-12T11:00:34;101197.28;;;26.05;100.00
4449;BME280;2237;51.870;6.160;2023-09-12T11:05:56;101183.81;;;25.96;100.00
4449;BME280;2237;51.870;6.160;2023-09-12T11:08:22;101181.25;;;26.16;100.00
4449;BME280;2237;51.870;6.160;2023-09-12T11:11:18;101179.50;;;26.37;100.00
4449;BME280;2237;51.870;6.160;2023-09-12T11:14:07;101181.31;;;26.37;100.00
4449;BME280;2237;51.870;6.160;2023-09-12T11:16:34;101187.78;;;26.12;100.00
4449;BME280;2237;51.870;6.160;2023-09-12T11:19:18;101194.72;;;26.04;100.00
4449;BME280;2237;51.870;6.160;2023-09-12T11:21:47;101183.38;;;26.33;100.00
4449;BME280;2237;51.870;6.160;2023-09-12T11:24:15;101192.47;;;26.42;100.00
4449;BME280;2237;51.870;6.160;2023-09-12T11:27:01;101178.81;;;26.77;100.00
4449;BME280;2237;51.870;6.160;2023-09-12T11:29:37;101170.47;;;26.70;100.00
4449;BME280;2237;51.870;6.160;2023-09-12T11:32:04;101166.84;;;26.71;100.00
4449;BME280;2237;51.870;6.160;2023-09-12T11:34:40;101158.78;;;27.03;100.00
4449;BME280;2237;51.870;6.160;2023-09-12T11:37:08;101159.88;;;27.21;100.00
4449;BME280;2237;51.870;6.160;2023-09-12T11:39:36;101152.94;;;27.70;100.00
4449;BME280;2237;51.870;6.160;2023-09-12T11:42:04;101152.53;;;27.84;100.00
4449;BME280;2237;51.870;6.160;2023-09-12T11:44:31;101156.25;;;28.02;100.00
4449;BME280;2237;51.870;6.160;2023-09-12T11:47:01;101159.38;;;28.07;99.61
4449;BME280;2237;51.870;6.160;2023-09-12T11:49:39;101155.47;;;28.11;100.00
4449;BME280;2237;51.870;6.160;2023-09-12T11:52:13;101151.53;;;28.15;100.00
4449;BME280;2237;51.870;6.160;2023-09-12T11:54:41;101161.38;;;28.24;99.59
4449;BME280;2237;51.870;6.160;2023-09-12T11:57:09;101170.97;;;28.17;100.00
4449;BME280;2237;51.870;6.160;2023-09-12T11:59:40;101163.78;;;28.27;100.00
4449;BME280;2237;51.870;6.160;2023-09-12T12:02:07;101167.03;;;28.31;99.87
4449;BME280;2237;51.870;6.160;2023-09-12T12:04:35;101172.97;;;28.34;97.84
4449;BME280;2237;51.870;6.160;2023-09-12T12:07:03;101170.59;;;28.41;98.63
4449;BME280;2237;51.870;6.160;2023-09-12T12:09:33;101165.91;;;28.43;98.38
4449;BME280;2237;51.870;6.160;2023-09-12T12:12:13;101160.56;;;28.33;97.95
4449;BME280;2237;51.870;6.160;2023-09-12T12:14:41;101169.44;;;28.43;96.89
4449;BME280;2237;51.870;6.160;2023-09-12T12:17:09;101158.59;;;28.54;94.02
4449;BME280;2237;51.870;6.160;2023-09-12T12:19:37;101160.59;;;28.81;94.14
4449;BME280;2237;51.870;6.160;2023-09-12T12:22:05;101164.63;;;29.04;91.46
4449;BME280;2237;51.870;6.160;2023-09-12T12:24:43;101165.53;;;29.42;90.79
4449;BME280;2237;51.870;6.160;2023-09-12T12:27:11;101166.38;;;29.42;88.71
4449;BME280;2237;51.870;6.160;2023-09-12T12:29:38;101156.97;;;29.65;88.40
4449;BME280;2237;51.870;6.160;2023-09-12T12:32:06;101158.22;;;29.61;86.72
4449;BME280;2237;51.870;6.160;2023-09-12T12:34:35;101160.63;;;29.64;84.88
4449;BME280;2237;51.870;6.160;2023-09-12T12:37:30;101161.56;;;29.73;88.13
4449;BME280;2237;51.870;6.160;2023-09-12T12:39:58;101159.44;;;29.86;84.71
4449;BME280;2237;51.870;6.160;2023-09-12T12:42:32;101151.56;;;30.20;83.03
4449;BME280;2237;51.870;6.160;2023-09-12T12:45:16;101156.72;;;30.49;81.99
4449;BME280;2237;51.870;6.160;2023-09-12T12:47:43;101152.19;;;30.49;77.47
4449;BME280;2237;51.870;6.160;2023-09-12T12:52:38;101152.50;;;30.46;75.28
4449;BME280;2237;51.870;6.160;2023-09-12T12:55:09;101152.75;;;30.08;75.77
4449;BME280;2237;51.870;6.160;2023-09-12T12:57:40;101152.94;;;30.24;77.88
4449;BME280;2237;51.870;6.160;2023-09-12T13:00:10;101146.59;;;30.43;77.90
4449;BME280;2237;51.870;6.160;2023-09-12T13:02:38;101142.19;;;30.59;76.56
4449;BME280;2237;51.870;6.160;2023-09-12T13:05:18;101159.53;;;30.65;77.17
4449;BME280;2237;51.870;6.160;2023-09-12T13:07:45;101147.28;;;30.88;76.48
4449;BME280;2237;51.870;6.160;2023-09-12T13:10:11;101146.03;;;30.74;72.22
4449;BME280;2237;51.870;6.160;2023-09-12T13:12:38;101142.47;;;30.74;72.79
4449;BME280;2237;51.870;6.160;2023-09-12T13:15:05;101133.53;;;30.91;72.74